logo
Search for airport 
image banner adimage banner adimage banner ad
image banner ad

OLBA - Rafic Hariri International Beirut

Located in Beirut, Lebanon

ICAO - OLBA, IATA - BEY

Data provided by Airmate  

General information

Coordinates: N33°49'9" E35°29'24"
Elevation is 85 feet MSL.
 
Rated:
View ratings:
[VIEW]
View others Airports in Mount Lebanon Governorate

Operational data

Special qualification required
Current time UTC:
Current local time:
Weather
METAR: OLBA 282000Z 24003KT 200V280 9999 BKN026 22/18 Q1014 NOSIG
View NOTAMs / SUP AIP / TFR affecting this airport [VIEW]
Communications frequencies: [VIEW]

Runways:

RWY identifierQFULength (ft)Width (ft)SurfaceLDA (ft)
0333°12467148CON
21213°12467148CON
16167°11138148CON
34347°11138148CON
17177°10663148ASP
35357°10663148ASP

Airport contact information

Address: Beirut Lebanon

Satellite view of OLBA